Forest Park, Illinois
Current Conditions -  °F | °C
As of 3:53 AM on Wednesday 26 Nov 2014 (Local Time) from KMDW Reporting Station
Broken Clouds Broken Clouds  
Wind Chill: 16°   Ceiling: 1200
Heat Index: 23°   Visibility: 8mi
Dew Point: 17°   Wind: 6mph
Humidity: 78%   Direction: 110°ESE
Pressure: 30.16"   Gusts: NA
Location:  41.88°N, 87.81°W
Report Text: KMDW 260953Z 11005KT 8SM BKN012 M05/M08 A3016 RMK AO2 SLP229 T10501083
Loading
Personal Weather Stations






























Interactive Weather Map New forecast layout! Learn more

10-Day Weather Forecast

Advertisements
Track Severe Weather on mobile